createdAt,value
2022-12-07T00:01:29.512Z,4.47
2022-12-07T00:04:01.561Z,6.00
2022-12-07T00:06:28.210Z,5.85
2022-12-07T00:08:54.775Z,5.55
2022-12-07T00:11:22.929Z,5.70
2022-12-07T00:13:54.657Z,5.30
2022-12-07T00:16:26.178Z,5.72
2022-12-07T00:18:52.808Z,5.15
2022-12-07T00:21:24.355Z,6.53
2022-12-07T00:23:52.647Z,5.93
2022-12-07T00:26:24.381Z,5.72
2022-12-07T00:28:54.212Z,5.03
2022-12-07T00:31:22.281Z,5.07
2022-12-07T00:33:49.264Z,5.47
2022-12-07T00:36:20.775Z,5.72
2022-12-07T00:38:50.198Z,5.00
2022-12-07T00:41:19.428Z,4.78
2022-12-07T00:43:46.746Z,5.43
2022-12-07T00:46:14.401Z,5.30
2022-12-07T00:48:41.480Z,5.47
2022-12-07T00:51:08.600Z,6.03
2022-12-07T00:53:41.125Z,5.18
2022-12-07T00:56:09.673Z,5.68
2022-12-07T00:58:36.197Z,5.50
2022-12-07T01:01:04.082Z,5.03
2022-12-07T01:03:31.012Z,6.20
2022-12-07T01:05:58.194Z,4.97
2022-12-07T01:08:25.873Z,4.43
2022-12-07T01:11:04.524Z,5.13
2022-12-07T01:13:31.647Z,4.90
2022-12-07T01:16:00.813Z,5.50
2022-12-07T01:18:28.655Z,5.78
2022-12-07T01:21:07.009Z,5.75
2022-12-07T01:23:34.874Z,4.82
2022-12-07T01:26:04.262Z,5.55
2022-12-07T01:28:30.791Z,6.00
2022-12-07T01:31:08.688Z,5.85
2022-12-07T01:33:37.057Z,6.32
2022-12-07T01:36:08.220Z,6.05
2022-12-07T01:38:34.935Z,6.07
2022-12-07T01:41:02.346Z,5.82
2022-12-07T01:43:30.095Z,6.40
2022-12-07T01:45:56.894Z,5.47
2022-12-07T01:48:28.743Z,5.97
2022-12-07T01:50:56.949Z,6.45
2022-12-07T01:53:25.545Z,5.40
2022-12-07T01:55:53.412Z,5.97
2022-12-07T01:58:20.275Z,5.60
2022-12-07T02:00:47.021Z,6.20
2022-12-07T02:03:21.160Z,6.32
2022-12-07T02:05:47.928Z,6.15
2022-12-07T02:08:15.529Z,6.00
2022-12-07T02:10:42.132Z,6.60
2022-12-07T02:13:13.036Z,6.25
2022-12-07T02:15:39.542Z,6.55
2022-12-07T02:18:10.988Z,5.90
2022-12-07T02:20:48.941Z,5.60
2022-12-07T02:23:57.479Z,6.40
2022-12-07T02:27:01.249Z,5.75
2022-12-07T02:29:50.389Z,6.47
2022-12-07T02:32:32.330Z,5.15
2022-12-07T02:35:25.280Z,6.15
2022-12-07T02:38:03.937Z,6.97
2022-12-07T02:40:41.595Z,6.20
2022-12-07T02:43:29.061Z,6.78
2022-12-07T02:46:06.348Z,6.55
2022-12-07T02:48:34.342Z,6.55
2022-12-07T02:51:00.959Z,6.07
2022-12-07T02:53:40.483Z,7.50
2022-12-07T02:56:22.179Z,5.82
2022-12-07T02:59:00.773Z,6.47
2022-12-07T03:01:34.714Z,6.75
2022-12-07T03:04:39.924Z,6.55
2022-12-07T03:07:45.279Z,6.88
2022-12-07T03:10:14.577Z,6.75
2022-12-07T03:13:15.539Z,6.70
2022-12-07T03:16:11.423Z,6.32
2022-12-07T03:18:46.551Z,6.90
2022-12-07T03:21:17.045Z,5.93
2022-12-07T03:23:46.409Z,6.90
2022-12-07T03:26:14.519Z,6.45
2022-12-07T03:28:44.251Z,6.82
2022-12-07T03:31:20.887Z,5.63
2022-12-07T03:33:52.933Z,5.43
2022-12-07T03:36:28.759Z,6.65
2022-12-07T03:39:01.980Z,5.93
2022-12-07T03:41:31.364Z,6.30
2022-12-07T03:43:58.644Z,5.30
2022-12-07T03:47:02.583Z,5.63
2022-12-07T03:49:52.921Z,5.68
2022-12-07T03:52:45.853Z,5.43
2022-12-07T03:55:20.117Z,4.90
2022-12-07T03:57:49.638Z,5.40
2022-12-07T04:00:16.511Z,5.38
2022-12-07T04:02:44.056Z,5.75
2022-12-07T04:05:11.593Z,5.78
2022-12-07T04:07:38.135Z,5.72
2022-12-07T04:10:06.008Z,5.53
2022-12-07T04:12:32.691Z,5.57
2022-12-07T04:14:59.251Z,5.00
2022-12-07T04:17:25.778Z,6.03
2022-12-07T04:19:52.311Z,6.20
2022-12-07T04:22:18.810Z,6.45
2022-12-07T04:24:45.308Z,3.20
2022-12-07T04:27:11.812Z,5.63
2022-12-07T04:29:38.416Z,6.22
2022-12-07T04:32:05.240Z,5.80
2022-12-07T04:34:31.744Z,6.05
2022-12-07T04:36:58.302Z,6.40
2022-12-07T04:39:29.480Z,5.82
2022-12-07T04:41:56.918Z,7.00
2022-12-07T04:44:24.478Z,6.38
2022-12-07T04:46:51.797Z,6.85
2022-12-07T04:49:18.965Z,6.53
2022-12-07T04:51:46.070Z,6.22
2022-12-07T04:54:13.367Z,7.13
2022-12-07T04:56:39.969Z,6.47
2022-12-07T04:59:07.005Z,6.32
2022-12-07T05:01:34.199Z,6.47
2022-12-07T05:04:00.685Z,7.65
2022-12-07T05:06:27.231Z,6.28
2022-12-07T05:08:53.734Z,6.07
2022-12-07T05:11:39.170Z,5.75
2022-12-07T05:14:20.401Z,5.78
2022-12-07T05:16:49.515Z,5.30
2022-12-07T05:19:16.458Z,6.57
2022-12-07T05:21:43.020Z,5.13
2022-12-07T05:24:11.330Z,6.32
2022-12-07T05:26:37.860Z,7.03
2022-12-07T05:29:05.078Z,5.70
2022-12-07T05:31:31.925Z,5.35
2022-12-07T05:33:58.471Z,5.97
2022-12-07T05:36:24.975Z,5.78
2022-12-07T05:38:51.481Z,6.07
2022-12-07T05:41:37.870Z,6.03
2022-12-07T05:44:05.375Z,6.57
2022-12-07T05:46:32.010Z,5.22
2022-12-07T05:48:58.505Z,5.50
2022-12-07T05:51:25.075Z,5.70
2022-12-07T05:53:51.683Z,5.40
2022-12-07T05:56:18.310Z,5.45
2022-12-07T05:59:07.660Z,6.13
2022-12-07T06:01:34.215Z,5.47
2022-12-07T06:04:00.723Z,5.57
2022-12-07T06:06:27.548Z,6.95
2022-12-07T06:08:54.182Z,7.32
2022-12-07T06:11:40.992Z,6.60
2022-12-07T06:14:07.510Z,5.80
2022-12-07T06:16:34.158Z,6.30
2022-12-07T06:19:01.379Z,6.10
2022-12-07T06:21:28.124Z,5.53
2022-12-07T06:23:54.625Z,6.20
2022-12-07T06:26:21.337Z,5.88
2022-12-07T06:28:50.423Z,6.88
2022-12-07T06:31:17.072Z,6.43
2022-12-07T06:33:43.738Z,6.30
2022-12-07T06:36:13.838Z,6.68
2022-12-07T06:38:40.500Z,5.80
2022-12-07T06:41:07.594Z,6.25
2022-12-07T06:43:34.352Z,6.18
2022-12-07T06:46:00.891Z,6.20
2022-12-07T06:48:27.446Z,5.63
2022-12-07T06:50:55.436Z,5.72
2022-12-07T06:53:22.654Z,5.65
2022-12-07T06:55:49.322Z,5.50
2022-12-07T06:58:15.862Z,5.78
2022-12-07T07:00:42.386Z,5.18
2022-12-07T07:03:09.023Z,5.82
2022-12-07T07:05:35.749Z,6.50
2022-12-07T07:10:50.153Z,6.13
2022-12-07T07:13:16.656Z,5.55
2022-12-07T07:15:43.550Z,6.60
2022-12-07T07:18:10.224Z,6.13
2022-12-07T07:20:38.786Z,6.88
2022-12-07T07:23:05.596Z,5.45
2022-12-07T07:25:32.196Z,5.82
2022-12-07T07:27:58.880Z,5.93
2022-12-07T07:30:25.528Z,6.28
2022-12-07T07:32:52.130Z,6.15
2022-12-07T07:35:18.824Z,6.75
2022-12-07T07:37:45.379Z,6.45
2022-12-07T07:40:12.108Z,6.72
2022-12-07T07:42:38.670Z,5.55
2022-12-07T07:45:05.620Z,6.10
2022-12-07T07:47:32.387Z,5.80
2022-12-07T07:49:58.964Z,5.50
2022-12-07T07:52:25.613Z,5.43
2022-12-07T07:54:52.166Z,5.30
2022-12-07T07:57:18.752Z,5.57
2022-12-07T07:59:48.500Z,6.50
2022-12-07T08:02:17.584Z,6.60
2022-12-07T08:04:44.798Z,5.72
2022-12-07T08:07:12.220Z,6.60
2022-12-07T08:09:39.103Z,6.15
2022-12-07T08:12:07.344Z,6.00
2022-12-07T08:14:34.862Z,6.50
2022-12-07T08:17:01.358Z,6.68
2022-12-07T08:19:27.845Z,6.93
2022-12-07T08:21:56.438Z,6.25
2022-12-07T08:24:23.640Z,6.80
2022-12-07T08:26:51.375Z,6.38
2022-12-07T08:29:18.505Z,6.28
2022-12-07T08:31:45.187Z,5.03
2022-12-07T08:34:12.954Z,6.35
2022-12-07T08:36:39.679Z,6.05
2022-12-07T08:41:55.907Z,4.20
2022-12-07T08:44:22.474Z,5.50
2022-12-07T08:46:52.980Z,5.28
2022-12-07T08:49:22.936Z,4.68
2022-12-07T08:51:49.535Z,4.75
2022-12-07T08:54:18.690Z,4.05
2022-12-07T08:56:46.283Z,4.75
2022-12-07T08:59:16.066Z,4.40
2022-12-07T09:01:42.779Z,5.20
2022-12-07T09:04:09.620Z,4.15
2022-12-07T09:06:36.206Z,4.20
2022-12-07T09:09:04.939Z,4.63
2022-12-07T09:11:31.699Z,4.50
2022-12-07T09:14:00.290Z,4.28
2022-12-07T09:16:26.979Z,4.38
2022-12-07T09:18:53.589Z,4.22
2022-12-07T09:21:20.100Z,3.60
2022-12-07T09:23:46.682Z,3.75
2022-12-07T09:26:13.441Z,4.05
2022-12-07T09:28:40.358Z,4.32
2022-12-07T09:31:24.489Z,3.47
2022-12-07T09:34:00.168Z,3.65
2022-12-07T09:36:27.953Z,3.70
2022-12-07T09:38:54.697Z,3.92
2022-12-07T09:41:24.613Z,3.47
2022-12-07T09:43:51.576Z,3.78
2022-12-07T09:46:20.500Z,3.10
2022-12-07T09:48:48.859Z,3.33
2022-12-07T09:51:24.008Z,2.40
2022-12-07T09:53:53.181Z,3.00
2022-12-07T09:56:26.566Z,2.80
2022-12-07T09:59:01.080Z,3.45
2022-12-07T10:01:32.702Z,2.92
2022-12-07T10:04:17.638Z,3.00
2022-12-07T10:06:44.436Z,2.45
2022-12-07T10:09:12.606Z,3.13
2022-12-07T10:12:01.493Z,2.65
2022-12-07T10:14:58.871Z,2.30
2022-12-07T10:17:31.782Z,2.63
2022-12-07T10:20:17.258Z,2.50
2022-12-07T10:23:19.319Z,2.03
2022-12-07T10:25:46.206Z,2.00
2022-12-07T10:28:17.949Z,2.65
2022-12-07T10:30:49.896Z,2.95
2022-12-07T10:33:39.255Z,2.63
2022-12-07T10:36:21.966Z,2.92
2022-12-07T10:38:54.949Z,2.97
2022-12-07T10:41:21.693Z,2.58
2022-12-07T10:43:54.705Z,3.63
2022-12-07T10:46:47.943Z,2.78
2022-12-07T10:49:55.975Z,2.90
2022-12-07T10:52:37.455Z,3.28
2022-12-07T10:55:15.069Z,2.78
2022-12-07T10:58:05.042Z,2.97
2022-12-07T11:01:10.614Z,3.15
2022-12-07T11:03:58.366Z,2.85
2022-12-07T11:06:53.647Z,2.55
2022-12-07T11:10:07.270Z,2.40
2022-12-07T11:12:37.774Z,2.92
2022-12-07T11:15:25.458Z,2.67
2022-12-07T11:18:29.110Z,2.42
2022-12-07T11:21:29.599Z,2.35
2022-12-07T11:24:09.616Z,3.13
2022-12-07T11:27:04.030Z,2.15
2022-12-07T11:30:02.018Z,2.20
2022-12-07T11:32:50.333Z,2.20
2022-12-07T11:35:32.541Z,2.50
2022-12-07T11:38:03.634Z,2.90
2022-12-07T11:40:36.962Z,2.90
2022-12-07T11:43:14.749Z,2.90
2022-12-07T11:45:43.531Z,2.65
2022-12-07T11:48:34.371Z,3.10
2022-12-07T11:51:02.418Z,4.05
2022-12-07T11:53:47.073Z,3.30
2022-12-07T11:56:15.999Z,4.18
2022-12-07T11:58:51.547Z,4.00
2022-12-07T12:01:39.181Z,3.30
2022-12-07T12:04:21.928Z,5.13
2022-12-07T12:06:50.473Z,3.90
2022-12-07T12:15:16.777Z,4.20
2022-12-07T12:18:07.324Z,4.00
2022-12-07T12:20:47.932Z,4.25
2022-12-07T12:23:23.586Z,4.10
2022-12-07T12:26:02.452Z,3.55
2022-12-07T12:28:31.870Z,3.97
2022-12-07T12:31:11.502Z,4.50
2022-12-07T12:33:39.716Z,4.63
2022-12-07T12:38:59.973Z,4.43
2022-12-07T12:41:39.229Z,3.38
2022-12-07T12:44:20.765Z,3.90
2022-12-07T12:46:58.206Z,4.43
2022-12-07T12:49:25.946Z,4.38
2022-12-07T12:52:01.400Z,4.38
2022-12-07T12:54:33.300Z,4.30
2022-12-07T12:57:24.505Z,4.63
2022-12-07T12:59:53.933Z,4.72
2022-12-07T13:02:30.197Z,4.68
2022-12-07T13:04:59.846Z,4.00
2022-12-07T13:07:48.209Z,4.05
2022-12-07T13:10:35.513Z,4.03
2022-12-07T13:13:15.152Z,4.85
2022-12-07T13:15:50.282Z,4.65
2022-12-07T13:18:25.671Z,3.60
2022-12-07T13:21:02.007Z,4.38
2022-12-07T13:23:46.867Z,4.32
2022-12-07T13:26:34.393Z,4.47
2022-12-07T13:31:53.086Z,4.05
2022-12-07T13:34:36.765Z,4.20
2022-12-07T13:37:22.854Z,4.65
2022-12-07T13:39:54.523Z,5.05
2022-12-07T13:42:27.226Z,5.10
2022-12-07T13:44:54.351Z,4.28
2022-12-07T13:47:36.180Z,5.10
2022-12-07T13:50:02.853Z,4.65
2022-12-07T13:52:31.251Z,5.35
2022-12-07T13:55:07.086Z,5.45
2022-12-07T13:57:36.256Z,4.72
2022-12-07T14:00:05.696Z,5.28
2022-12-07T14:02:35.283Z,5.35
2022-12-07T14:05:16.210Z,5.97
2022-12-07T14:08:01.752Z,6.00
2022-12-07T14:10:56.140Z,5.95
2022-12-07T14:13:40.099Z,5.60
2022-12-07T14:16:19.138Z,4.78
2022-12-07T14:18:45.786Z,5.93
2022-12-07T14:21:18.087Z,6.03
2022-12-07T14:23:44.740Z,5.47
2022-12-07T14:26:16.772Z,5.25
2022-12-07T14:28:44.401Z,6.28
2022-12-07T14:31:26.199Z,5.85
2022-12-07T14:34:00.383Z,5.30
2022-12-07T14:36:26.890Z,6.00
2022-12-07T14:38:55.234Z,6.00
2022-12-07T14:41:41.241Z,5.65
2022-12-07T14:44:34.058Z,6.05
2022-12-07T14:49:46.130Z,4.95
2022-12-07T14:55:04.853Z,6.43
2022-12-07T14:57:31.578Z,6.07
2022-12-07T14:59:58.052Z,5.63
2022-12-07T15:02:24.547Z,6.85
2022-12-07T15:04:51.067Z,5.95
2022-12-07T15:07:21.910Z,5.68
2022-12-07T15:09:49.461Z,6.88
2022-12-07T15:12:16.315Z,6.10
2022-12-07T15:14:42.958Z,5.63
2022-12-07T15:17:23.132Z,5.53
2022-12-07T15:19:54.584Z,5.10
2022-12-07T15:22:21.092Z,6.07
2022-12-07T15:24:48.070Z,5.63
2022-12-07T15:27:14.618Z,4.57
2022-12-07T15:29:41.381Z,4.38
2022-12-07T15:32:07.947Z,5.32
2022-12-07T15:34:40.068Z,4.95
2022-12-07T15:37:07.478Z,5.65
2022-12-07T15:39:33.988Z,4.35
2022-12-07T15:42:00.568Z,5.82
2022-12-07T15:44:45.748Z,5.20
2022-12-07T15:47:12.339Z,5.47
2022-12-07T15:49:39.020Z,7.18
2022-12-07T15:52:05.549Z,6.93
2022-12-07T15:54:33.172Z,5.55
2022-12-07T15:57:08.041Z,5.78
2022-12-07T15:59:34.862Z,6.38
2022-12-07T16:02:01.461Z,5.65
2022-12-07T16:04:30.797Z,6.75
2022-12-07T16:06:58.024Z,7.28
2022-12-07T16:09:24.674Z,6.05
2022-12-07T16:11:51.560Z,5.88
2022-12-07T16:14:18.169Z,6.50
2022-12-07T16:16:44.723Z,5.80
2022-12-07T16:19:12.047Z,5.75
2022-12-07T16:21:38.669Z,6.25
2022-12-07T16:24:08.603Z,5.90
2022-12-07T16:26:35.304Z,6.25
2022-12-07T16:29:01.801Z,6.32
2022-12-07T16:31:29.392Z,7.07
2022-12-07T16:33:57.971Z,6.63
2022-12-07T16:36:55.320Z,6.50
2022-12-07T16:39:12.553Z,6.88
2022-12-07T16:41:39.045Z,5.68
2022-12-07T16:44:07.327Z,5.78
2022-12-07T16:49:00.915Z,5.40
2022-12-07T16:51:27.461Z,6.28
2022-12-07T16:53:54.561Z,6.20
2022-12-07T16:56:21.224Z,6.00
2022-12-07T16:58:49.335Z,6.60
2022-12-07T17:01:18.367Z,6.00
2022-12-07T17:03:45.930Z,6.22
2022-12-07T17:06:21.335Z,5.60
2022-12-07T17:08:48.086Z,5.93
2022-12-07T17:11:19.543Z,6.07
2022-12-07T17:14:04.623Z,6.68
2022-12-07T17:16:31.721Z,5.68
2022-12-07T17:18:58.567Z,6.32
2022-12-07T17:21:25.510Z,6.07
2022-12-07T17:23:52.340Z,6.65
2022-12-07T17:26:21.980Z,6.85
2022-12-07T17:28:48.598Z,7.20
2022-12-07T17:31:16.672Z,6.93
2022-12-07T17:33:43.254Z,6.57
2022-12-07T17:36:12.046Z,6.53
2022-12-07T17:38:38.821Z,5.68
2022-12-07T17:41:43.421Z,5.72
2022-12-07T17:44:12.104Z,5.70
2022-12-07T17:46:39.536Z,5.65
2022-12-07T17:49:06.961Z,6.25
2022-12-07T17:51:52.463Z,5.50
2022-12-07T17:54:19.423Z,5.80
2022-12-07T17:56:46.492Z,6.35
2022-12-07T17:59:13.320Z,5.38
2022-12-07T18:01:40.642Z,6.45
2022-12-07T18:04:07.244Z,5.53
2022-12-07T18:06:34.195Z,5.47
2022-12-07T18:09:01.108Z,5.45
2022-12-07T18:11:27.899Z,5.55
2022-12-07T18:13:54.416Z,6.10
2022-12-07T18:16:24.347Z,6.43
2022-12-07T18:18:53.954Z,5.88
2022-12-07T18:21:23.264Z,5.88
2022-12-07T18:23:52.992Z,6.53
2022-12-07T18:26:20.581Z,6.55
2022-12-07T18:28:47.308Z,6.22
2022-12-07T18:31:15.739Z,6.35
2022-12-07T18:33:43.956Z,6.60
2022-12-07T18:36:10.920Z,5.60
2022-12-07T18:38:37.635Z,6.38
2022-12-07T18:41:06.743Z,6.57
2022-12-07T18:43:33.242Z,6.63
2022-12-07T18:45:59.780Z,6.55
2022-12-07T18:48:26.439Z,6.63
2022-12-07T18:51:01.086Z,7.05
2022-12-07T18:56:08.802Z,5.13
2022-12-07T18:58:35.413Z,5.60
2022-12-07T19:01:02.237Z,5.57
2022-12-07T19:03:33.235Z,5.82
2022-12-07T19:06:06.086Z,5.95
2022-12-07T19:08:34.226Z,6.40
2022-12-07T19:13:50.660Z,5.45
2022-12-07T19:16:17.306Z,5.68
2022-12-07T19:18:49.295Z,6.43
2022-12-07T19:21:17.834Z,6.75
2022-12-07T19:23:44.361Z,7.20
2022-12-07T19:26:10.884Z,6.82
2022-12-07T19:28:37.482Z,5.70
2022-12-07T19:31:08.088Z,5.13
2022-12-07T19:33:34.664Z,6.28
2022-12-07T19:36:01.149Z,6.22
2022-12-07T19:38:27.640Z,5.68
2022-12-07T19:40:54.126Z,6.00
2022-12-07T19:43:20.631Z,5.90
2022-12-07T19:45:47.299Z,6.40
2022-12-07T19:48:13.885Z,5.93
2022-12-07T19:50:40.403Z,6.40
2022-12-07T19:53:06.886Z,6.03
2022-12-07T19:55:33.344Z,6.00
2022-12-07T19:57:59.840Z,6.90
2022-12-07T20:00:26.543Z,7.68
2022-12-07T20:02:53.124Z,6.15
2022-12-07T20:05:21.911Z,5.88
2022-12-07T20:07:48.485Z,5.65
2022-12-07T20:10:15.141Z,6.00
2022-12-07T20:13:00.263Z,7.00
2022-12-07T20:15:26.725Z,6.47
2022-12-07T20:17:54.272Z,6.72
2022-12-07T20:20:20.783Z,6.20
2022-12-07T20:22:47.424Z,6.95
2022-12-07T20:25:13.955Z,8.15
2022-12-07T20:27:40.476Z,7.00
2022-12-07T20:30:07.639Z,7.10
2022-12-07T20:32:34.159Z,7.78
2022-12-07T20:35:01.083Z,8.40
2022-12-07T20:37:27.854Z,8.27
2022-12-07T20:39:55.757Z,7.80
2022-12-07T20:42:37.257Z,7.95
2022-12-07T20:45:09.541Z,7.10
2022-12-07T20:47:36.786Z,7.63
2022-12-07T20:50:04.486Z,7.60
2022-12-07T20:52:31.053Z,7.53
2022-12-07T20:54:57.529Z,7.22
2022-12-07T20:57:24.039Z,8.43
2022-12-07T20:59:50.563Z,8.30
2022-12-07T21:02:17.174Z,8.55
2022-12-07T21:04:43.727Z,8.27
2022-12-07T21:07:10.235Z,7.72
2022-12-07T21:09:36.875Z,8.02
2022-12-07T21:12:03.682Z,7.50
2022-12-07T21:14:30.199Z,7.55
2022-12-07T21:16:56.899Z,7.32
2022-12-07T21:19:24.891Z,7.78
2022-12-07T21:21:51.740Z,6.75
2022-12-07T21:24:18.212Z,7.25
2022-12-07T21:26:44.685Z,7.68
2022-12-07T21:29:11.152Z,7.15
2022-12-07T21:31:37.750Z,7.78
2022-12-07T21:34:04.956Z,7.55
2022-12-07T21:36:31.509Z,7.47
2022-12-07T21:38:58.041Z,5.90
2022-12-07T21:41:26.648Z,7.47
2022-12-07T21:43:53.313Z,6.95
2022-12-07T21:46:21.369Z,7.13
2022-12-07T21:48:52.949Z,7.55
2022-12-07T21:51:23.515Z,7.13
2022-12-07T21:53:52.027Z,7.80
2022-12-07T21:56:24.526Z,7.45
2022-12-07T21:58:52.797Z,8.73
2022-12-07T22:03:49.489Z,7.85
2022-12-07T22:06:25.008Z,8.05
2022-12-07T22:08:52.728Z,7.95
2022-12-07T22:11:19.620Z,7.63
2022-12-07T22:14:09.924Z,7.63
2022-12-07T22:16:38.114Z,7.15
2022-12-07T22:19:05.081Z,6.95
2022-12-07T22:21:31.925Z,8.43
2022-12-07T22:23:58.624Z,7.97
2022-12-07T22:26:25.298Z,7.63
2022-12-07T22:28:52.025Z,6.90
2022-12-07T22:31:20.030Z,7.13
2022-12-07T22:33:46.763Z,8.35
2022-12-07T22:36:13.708Z,8.68
2022-12-07T22:38:40.705Z,7.75
2022-12-07T22:41:22.458Z,7.53
2022-12-07T22:43:49.105Z,7.80
2022-12-07T22:46:15.673Z,8.15
2022-12-07T22:48:42.261Z,7.28
2022-12-07T22:51:19.261Z,8.35
2022-12-07T22:53:45.749Z,7.32
2022-12-07T22:56:12.513Z,7.60
2022-12-07T22:58:39.761Z,7.03
2022-12-07T23:01:10.361Z,7.55
2022-12-07T23:03:37.192Z,7.55
2022-12-07T23:06:09.163Z,7.30
2022-12-07T23:08:35.710Z,6.70
2022-12-07T23:11:02.669Z,7.25
2022-12-07T23:13:31.799Z,7.30
2022-12-07T23:15:59.771Z,7.38
2022-12-07T23:18:26.686Z,6.63
2022-12-07T23:20:56.081Z,7.47
2022-12-07T23:23:22.575Z,6.28
2022-12-07T23:25:49.105Z,7.88
2022-12-07T23:28:15.706Z,6.30
2022-12-07T23:30:42.220Z,7.18
2022-12-07T23:33:12.674Z,7.03
2022-12-07T23:35:42.780Z,6.10
2022-12-07T23:38:09.348Z,6.07
2022-12-07T23:40:36.637Z,6.22
2022-12-07T23:43:03.257Z,5.88
2022-12-07T23:45:29.769Z,6.07
2022-12-07T23:47:56.285Z,5.85
2022-12-07T23:50:22.753Z,6.20
2022-12-07T23:52:49.283Z,6.05
2022-12-07T23:55:15.843Z,5.43
2022-12-07T23:57:42.429Z,5.78
